Ece S — 3EWK4 — position and weather

sailwx.info

Track history (hours):
 
Tides and Currents Weather Stations Pressure Air Temp Water Temp Dewpoint Dewpoint Depression Visibility Wind Speed Wind Dir Waves Ship Positions

Ece S

Last reported at 2018-Jun-29 14:56 UTC. Time now 2018-Jul-23 17:27 UTC.
Position N 44°23' E 037°14'.
Warning: this ship's position is 24 days out of date.

Length 101 m; draft 7 m.

Type: Ship. MMSI: 373882000.

Date/timePositionNaut miles runAvg speedWind from/ knotsBaromVisibWave heightAir tempDewpointWater temp
2018-Jun-29 14:56N 44°23' E 037°14'5 9.3
2018-Jun-29 14:26N 44°25' E 037°20'4 9.1
2018-Jun-29 13:59N 44°27' E 037°25'4 8.9
2018-Jun-29 13:30N 44°28' E 037°30'4 9.0
2018-Jun-29 13:00N 44°30' E 037°36'5 9.3
2018-Jun-29 12:30N 44°32' E 037°42'4 8.7
2018-Jun-29 12:00N 44°36' E 037°46'4 8.6
2018-Jun-29 11:30N 44°39' E 037°49'3 5.9
2018-Jun-29 11:00N 44°42' E 037°49'2 4.4
2018-Jun-29 10:30N 44°44' E 037°47'0 0.0
2018-Jun-29 10:00N 44°44' E 037°47'0 0.0
2018-Jun-29 09:30N 44°44' E 037°47'0 0.0
2018-Jun-29 08:59N 44°44' E 037°47'0 0.0
2018-Jun-29 08:29N 44°44' E 037°47'0 0.0
2018-Jun-29 07:59N 44°44' E 037°47'0 0.0
2018-Jun-29 07:29N 44°44' E 037°47'0 0.0
2018-Jun-29 06:59N 44°44' E 037°47'0 0.0
2018-Jun-29 06:29N 44°44' E 037°47'0 0.0
2018-Jun-29 05:59N 44°44' E 037°47'0 0.0
2018-Jun-29 05:29N 44°44' E 037°47'0 0.0
2018-Jun-29 04:59N 44°44' E 037°47'0 0.0
2018-Jun-29 04:29N 44°44' E 037°47'0 0.0
2018-Jun-29 03:59N 44°44' E 037°47'0 0.0
2018-Jun-29 03:29N 44°44' E 037°47'0 0.0
2018-Jun-29 02:59N 44°44' E 037°47'0 0.0
2018-Jun-29 02:29N 44°44' E 037°47'0 0.0
2018-Jun-29 01:59N 44°44' E 037°47'0 0.0
2018-Jun-29 01:29N 44°44' E 037°47'0 0.0
2018-Jun-29 00:59N 44°44' E 037°47'0 0.0
2018-Jun-29 00:29N 44°44' E 037°47'0 0.0
2018-Jun-28 23:59N 44°44' E 037°47'0 0.0
2018-Jun-28 23:29N 44°44' E 037°47'0 0.0
2018-Jun-28 22:59N 44°44' E 037°47'0 0.0
2018-Jun-28 22:29N 44°44' E 037°47'0 0.0
2018-Jun-28 21:59N 44°44' E 037°47'0 0.0
2018-Jun-28 21:29N 44°44' E 037°47'0 0.0
2018-Jun-28 20:59N 44°44' E 037°47'0 0.0
2018-Jun-28 20:29N 44°44' E 037°47'0 0.0
2018-Jun-28 19:59N 44°44' E 037°47'0 0.0
2018-Jun-28 19:29N 44°44' E 037°47'0 0.0
2018-Jun-28 18:59N 44°44' E 037°47'0 0.0
2018-Jun-28 18:29N 44°44' E 037°47'0 0.0
2018-Jun-28 17:59N 44°44' E 037°47'0 0.0
2018-Jun-28 17:29N 44°44' E 037°47'0 0.0
2018-Jun-28 16:56N 44°44' E 037°47'0 0.0
2018-Jun-28 16:29N 44°44' E 037°47'0 0.0
2018-Jun-28 15:59N 44°44' E 037°47'0 0.0
2018-Jun-28 15:29N 44°44' E 037°47'0 0.0
2018-Jun-28 14:59N 44°44' E 037°47'0 0.0
2018-Jun-28 14:29N 44°44' E 037°47'0 0.0
2018-Jun-28 13:59N 44°44' E 037°47'0 0.0
2018-Jun-28 13:29N 44°44' E 037°47'0 0.0
2018-Jun-28 12:59N 44°44' E 037°47'0 0.0
2018-Jun-28 12:29N 44°44' E 037°47'0 0.0
2018-Jun-28 11:59N 44°44' E 037°47'0 0.0
2018-Jun-28 11:29N 44°44' E 037°47'0 0.0
2018-Jun-28 10:59N 44°44' E 037°47'0 0.0
2018-Jun-28 10:29N 44°44' E 037°47'0 0.0
2018-Jun-28 09:59N 44°44' E 037°47'0 0.0
2018-Jun-28 09:29N 44°44' E 037°47'0 0.0
2018-Jun-28 08:56N 44°44' E 037°47'0 0.0
2018-Jun-28 08:29N 44°44' E 037°47'0 0.0
2018-Jun-28 07:59N 44°44' E 037°47'0 0.0
2018-Jun-28 07:29N 44°44' E 037°47'0 0.0
2018-Jun-28 06:59N 44°44' E 037°47'0 0.0
2018-Jun-28 06:29N 44°44' E 037°47'0 0.0
2018-Jun-28 05:59N 44°44' E 037°47'0 0.0
2018-Jun-28 05:29N 44°44' E 037°47'0 0.0
2018-Jun-28 04:59N 44°44' E 037°47'0 0.0
2018-Jun-28 04:29N 44°44' E 037°47'0 0.0
2018-Jun-28 03:59N 44°44' E 037°47'0 0.0
2018-Jun-28 03:29N 44°44' E 037°47'0 0.0
2018-Jun-28 02:59N 44°44' E 037°47'0 0.0
2018-Jun-28 02:29N 44°44' E 037°47'0 0.0
2018-Jun-28 01:59N 44°44' E 037°47'0 0.0
2018-Jun-28 01:29N 44°44' E 037°47'0 0.0
2018-Jun-28 00:59N 44°44' E 037°47'0 0.0
2018-Jun-28 00:29N 44°44' E 037°47'0 0.0
2018-Jun-27 23:59N 44°44' E 037°47'0 0.0
2018-Jun-27 23:29N 44°44' E 037°47'0 0.0
2018-Jun-27 22:56N 44°44' E 037°47'0 0.0
2018-Jun-27 22:29N 44°44' E 037°47'0 0.0
2018-Jun-27 21:59N 44°44' E 037°47'0 0.0
2018-Jun-27 21:29N 44°44' E 037°47'0 0.0
2018-Jun-27 20:59N 44°44' E 037°47'0 0.0
2018-Jun-27 20:29N 44°44' E 037°47'0 0.0
2018-Jun-27 19:59N 44°44' E 037°47'0 0.0
2018-Jun-27 19:29N 44°44' E 037°47'0 0.0
2018-Jun-27 18:59N 44°44' E 037°47'0 0.0
2018-Jun-27 18:26N 44°44' E 037°47'0 0.0
2018-Jun-27 17:59N 44°44' E 037°47'0 0.0
2018-Jun-27 17:30N 44°44' E 037°47'1 2.4
2018-Jun-27 17:00N 44°43' E 037°48'4 8.1
2018-Jun-27 16:31N 44°39' E 037°51'2 3.8
2018-Jun-27 16:01N 44°38' E 037°53'1 1.8
2018-Jun-27 15:30N 44°39' E 037°54'0 0.2
2018-Jun-27 15:00N 44°39' E 037°54'0 0.0
2018-Jun-27 14:29N 44°39' E 037°54'0 0.0
2018-Jun-27 13:59N 44°39' E 037°54'0 0.1
2018-Jun-27 13:29N 44°39' E 037°54'0 0.1
2018-Jun-27 12:59N 44°39' E 037°54'0 0.0
2018-Jun-27 12:29N 44°39' E 037°54'0 0.0
2018-Jun-27 11:59N 44°39' E 037°54'0 0.0
2018-Jun-27 11:29N 44°39' E 037°54'0 0.0
2018-Jun-27 10:59N 44°39' E 037°54'0 0.0
2018-Jun-27 10:17N 44°39' E 037°54'0 0.0
2018-Jun-27 09:59N 44°39' E 037°54'0 0.0
2018-Jun-27 09:29N 44°39' E 037°54'0 0.0
2018-Jun-27 08:59N 44°39' E 037°54'0 0.0
2018-Jun-27 08:29N 44°39' E 037°54'0 0.0
2018-Jun-27 07:59N 44°39' E 037°54'0 0.0
2018-Jun-27 07:29N 44°39' E 037°54'0 0.0
2018-Jun-27 06:59N 44°39' E 037°54'0 0.0
2018-Jun-27 06:29N 44°39' E 037°54'0 0.0
2018-Jun-27 05:59N 44°39' E 037°54'0 0.0
2018-Jun-27 05:29N 44°39' E 037°54'0 0.1
2018-Jun-27 04:59N 44°39' E 037°54'0 0.1
2018-Jun-27 04:29N 44°39' E 037°54'0 0.0
2018-Jun-27 03:59N 44°39' E 037°54'0 0.0
2018-Jun-27 03:29N 44°39' E 037°54'0 0.0
2018-Jun-27 02:59N 44°39' E 037°54'0 0.1
2018-Jun-27 02:29N 44°39' E 037°54'0 0.0
2018-Jun-27 01:59N 44°39' E 037°54'0 0.0
2018-Jun-27 01:29N 44°39' E 037°54'0 0.0
2018-Jun-27 00:59N 44°39' E 037°54'0 0.0
2018-Jun-27 00:29N 44°39' E 037°54'0 0.1
2018-Jun-26 23:59N 44°39' E 037°54'0 0.1
2018-Jun-26 23:29N 44°39' E 037°54'0 0.0
2018-Jun-26 22:59N 44°39' E 037°54'0 0.0
2018-Jun-26 22:29N 44°39' E 037°54'0 0.0
2018-Jun-26 21:56N 44°39' E 037°54'0 0.1
2018-Jun-26 21:29N 44°39' E 037°54'0 0.0
2018-Jun-26 20:59N 44°39' E 037°54'0 0.0
2018-Jun-26 20:29N 44°39' E 037°54'0 0.0
2018-Jun-26 19:59N 44°39' E 037°54'0 0.1
2018-Jun-26 19:29N 44°39' E 037°54'0 0.2
2018-Jun-26 18:59N 44°39' E 037°54'0 0.0
2018-Jun-26 18:29N 44°39' E 037°54'0 0.3
2018-Jun-26 17:59N 44°39' E 037°54'0 0.1
2018-Jun-26 17:29N 44°39' E 037°54'0 0.0
2018-Jun-26 16:26N 44°39' E 037°54'0 0.0
2018-Jun-26 15:59N 44°39' E 037°54'0 0.0
2018-Jun-26 15:29N 44°39' E 037°54'0 0.0
2018-Jun-26 14:59N 44°39' E 037°54'0 0.0
2018-Jun-26 14:29N 44°39' E 037°54'0 0.0
2018-Jun-26 13:53N 44°39' E 037°54'0 0.0
2018-Jun-26 13:29N 44°39' E 037°54'0 0.0
2018-Jun-26 12:59N 44°39' E 037°54'0 0.0
2018-Jun-26 12:29N 44°39' E 037°54'0 0.0
2018-Jun-26 11:59N 44°39' E 037°54'0 0.3
2018-Jun-26 11:29N 44°39' E 037°54'0 0.1
2018-Jun-26 10:59N 44°38' E 037°54'0 0.2
2018-Jun-26 10:29N 44°39' E 037°54'0 0.0
2018-Jun-26 09:59N 44°39' E 037°54'0 0.0
2018-Jun-26 09:29N 44°39' E 037°54'0 0.2
2018-Jun-26 08:59N 44°39' E 037°54'0 0.0
2018-Jun-26 08:29N 44°38' E 037°54'0 0.1
2018-Jun-26 07:59N 44°39' E 037°54'0 0.0
2018-Jun-26 07:29N 44°39' E 037°54'0 0.2
2018-Jun-26 06:59N 44°39' E 037°54'0 0.0
2018-Jun-26 05:59N 44°39' E 037°54'0 0.1
2018-Jun-26 05:29N 44°39' E 037°54'0 0.1
2018-Jun-26 04:59N 44°39' E 037°54'0 0.2
2018-Jun-26 04:29N 44°39' E 037°54'0 0.1
2018-Jun-26 03:59N 44°39' E 037°54'0 0.0
2018-Jun-26 03:29N 44°39' E 037°54'0 0.1
2018-Jun-26 02:59N 44°39' E 037°54'0 0.0
2018-Jun-26 02:29N 44°39' E 037°54'0 0.0
2018-Jun-26 01:59N 44°39' E 037°54'0 0.0
2018-Jun-26 01:29N 44°39' E 037°54'0 0.0
2018-Jun-26 00:59N 44°39' E 037°54'0 0.0
2018-Jun-26 00:29N 44°39' E 037°54'0 0.0
2018-Jun-25 23:59N 44°39' E 037°54'0 0.1
2018-Jun-25 23:29N 44°38' E 037°54'0 0.0
2018-Jun-25 22:59N 44°38' E 037°54'0 0.0
2018-Jun-25 22:29N 44°38' E 037°54'0 0.0
2018-Jun-25 21:59N 44°38' E 037°54'0 0.0
2018-Jun-25 21:29N 44°38' E 037°54'0 0.0
2018-Jun-25 20:59N 44°38' E 037°54'0 0.0
2018-Jun-25 20:29N 44°38' E 037°54'0 0.0
2018-Jun-25 19:59N 44°39' E 037°54'0 0.1
2018-Jun-25 19:29N 44°39' E 037°54'0 0.1
2018-Jun-25 18:59N 44°39' E 037°54'0 0.1
2018-Jun-25 18:29N 44°39' E 037°54'0 0.0
2018-Jun-25 17:59N 44°39' E 037°54'0 0.0
2018-Jun-25 17:29N 44°39' E 037°54'0 0.0
2018-Jun-25 16:59N 44°39' E 037°54'0 0.1
2018-Jun-25 16:29N 44°39' E 037°54'0 0.1
2018-Jun-25 15:59N 44°39' E 037°54'0 0.0
2018-Jun-25 15:29N 44°39' E 037°54'0 0.0
2018-Jun-25 14:59N 44°39' E 037°54'0 0.0
2018-Jun-25 14:29N 44°39' E 037°54'0 0.0
2018-Jun-25 13:59N 44°39' E 037°54'0 0.0
2018-Jun-25 13:29N 44°39' E 037°54'0 0.0
2018-Jun-25 12:59N 44°39' E 037°54'0 0.0
2018-Jun-25 12:29N 44°39' E 037°54'0 0.0
2018-Jun-25 11:59N 44°39' E 037°54'0 0.0
2018-Jun-25 11:23N 44°39' E 037°54'0 0.0
2018-Jun-25 10:59N 44°39' E 037°54'0 0.0
2018-Jun-25 10:29N 44°39' E 037°54'0 0.0
2018-Jun-25 09:59N 44°39' E 037°54'0 0.0
2018-Jun-25 09:29N 44°39' E 037°54'0 0.0
2018-Jun-25 08:59N 44°39' E 037°54'0 0.0
2018-Jun-25 08:29N 44°39' E 037°54'0 0.0
2018-Jun-25 07:59N 44°39' E 037°54'0 0.0
2018-Jun-25 07:29N 44°39' E 037°54'0 0.0
2018-Jun-25 06:59N 44°39' E 037°54'0 0.0
2018-Jun-25 06:29N 44°39' E 037°54'0 0.0
2018-Jun-25 05:59N 44°39' E 037°54'0 0.0
2018-Jun-25 05:29N 44°39' E 037°54'0 0.0
2018-Jun-25 04:59N 44°39' E 037°54'0 0.0
2018-Jun-25 04:29N 44°39' E 037°54'0 0.0
2018-Jun-25 03:59N 44°39' E 037°54'0 0.0
2018-Jun-25 03:29N 44°39' E 037°54'0 0.0
2018-Jun-25 02:59N 44°39' E 037°54'0 0.0
2018-Jun-25 02:29N 44°39' E 037°54'0 0.0
2018-Jun-25 01:59N 44°39' E 037°54'0 0.0
2018-Jun-25 01:29N 44°39' E 037°54'0 0.0
2018-Jun-25 00:59N 44°39' E 037°54'0 0.0
2018-Jun-25 00:29N 44°39' E 037°54'0 0.0
2018-Jun-24 23:59N 44°39' E 037°54'0 0.0
2018-Jun-24 23:29N 44°39' E 037°54'0 0.0
2018-Jun-24 22:59N 44°39' E 037°54'0 0.0
2018-Jun-24 22:29N 44°39' E 037°54'0 0.1
2018-Jun-24 21:59N 44°39' E 037°54'0 0.0
2018-Jun-24 21:29N 44°39' E 037°54'0 0.0
2018-Jun-24 20:59N 44°39' E 037°54'0 0.0
2018-Jun-24 20:29N 44°39' E 037°54'0 0.0
2018-Jun-24 19:59N 44°39' E 037°54'0 0.0
2018-Jun-24 19:29N 44°39' E 037°54'0 0.0
2018-Jun-24 18:59N 44°39' E 037°54'0 0.0
2018-Jun-24 18:29N 44°39' E 037°54'0 0.0
2018-Jun-24 17:59N 44°39' E 037°54'0 0.1
2018-Jun-24 17:29N 44°39' E 037°54'0 0.0
2018-Jun-24 16:59N 44°39' E 037°54'0 0.0
2018-Jun-24 16:29N 44°39' E 037°54'0 0.0
2018-Jun-24 15:59N 44°39' E 037°54'0 0.0
2018-Jun-24 15:29N 44°39' E 037°54'0 0.1
2018-Jun-24 14:56N 44°39' E 037°54'0 0.1
2018-Jun-24 14:29N 44°39' E 037°54'0 0.1
2018-Jun-24 13:59N 44°39' E 037°54'0 0.1
2018-Jun-24 13:29N 44°39' E 037°54'0 0.1
2018-Jun-24 12:59N 44°39' E 037°54'0 0.0
2018-Jun-24 12:29N 44°39' E 037°54'0 0.0
2018-Jun-24 11:59N 44°39' E 037°54'0 0.0
2018-Jun-24 11:29N 44°39' E 037°54'0 0.0
2018-Jun-24 10:59N 44°39' E 037°54'0 0.0
2018-Jun-24 10:29N 44°39' E 037°54'0 0.0
2018-Jun-24 09:59N 44°39' E 037°54'0 0.0
2018-Jun-24 09:29N 44°39' E 037°54'0 0.0
2018-Jun-24 08:59N 44°39' E 037°54'0 0.0
2018-Jun-24 08:29N 44°39' E 037°54'0 0.1
2018-Jun-24 07:59N 44°39' E 037°54'0 0.0
2018-Jun-24 07:29N 44°39' E 037°54'0 0.0
2018-Jun-24 06:59N 44°39' E 037°54'0 0.0
2018-Jun-24 06:26N 44°39' E 037°54'0 0.1
2018-Jun-24 05:59N 44°39' E 037°54'0 0.0
2018-Jun-24 05:29N 44°39' E 037°54'0 0.0
2018-Jun-24 04:59N 44°39' E 037°54'0 0.1
2018-Jun-24 04:29N 44°39' E 037°54'0 0.2
2018-Jun-24 03:59N 44°39' E 037°54'0 0.1
2018-Jun-24 03:29N 44°39' E 037°54'0 0.0
2018-Jun-24 02:59N 44°39' E 037°54'0 0.2
2018-Jun-24 02:29N 44°39' E 037°54'0 0.1
2018-Jun-24 01:59N 44°39' E 037°54'0 0.1
2018-Jun-24 01:29N 44°39' E 037°54'0 0.2
2018-Jun-24 00:59N 44°39' E 037°54'0 0.3
2018-Jun-24 00:29N 44°39' E 037°54'0 0.3
2018-Jun-23 23:59N 44°39' E 037°54'0 0.0
2018-Jun-23 23:29N 44°39' E 037°54'0 0.0
2018-Jun-23 22:59N 44°39' E 037°54'0 0.0
2018-Jun-23 22:29N 44°39' E 037°54'0 0.0
2018-Jun-23 21:59N 44°39' E 037°54'0 0.0
2018-Jun-23 21:29N 44°39' E 037°54'0 0.1
2018-Jun-23 20:59N 44°39' E 037°54'0 0.1
2018-Jun-23 20:29N 44°39' E 037°54'0 0.0
2018-Jun-23 19:59N 44°39' E 037°54'0 0.0
2018-Jun-23 19:23N 44°39' E 037°54'0 0.1
2018-Jun-23 18:59N 44°39' E 037°54'0 0.0
2018-Jun-23 18:29N 44°39' E 037°54'0 0.0
2018-Jun-23 17:59N 44°39' E 037°54'0 0.0
2018-Jun-23 17:23N 44°39' E 037°54'0 0.1
2018-Jun-23 16:59N 44°39' E 037°54'0 0.0
2018-Jun-23 16:29N 44°39' E 037°54'0 0.0
2018-Jun-23 15:59N 44°39' E 037°54'0 0.0
2018-Jun-23 15:29N 44°39' E 037°54'0 0.1
2018-Jun-23 14:59N 44°39' E 037°54'0 0.1
2018-Jun-23 14:29N 44°39' E 037°54'0 0.1
2018-Jun-23 13:59N 44°39' E 037°54'0 0.2
2018-Jun-23 13:29N 44°39' E 037°54'0 0.1
2018-Jun-23 12:59N 44°39' E 037°54'0 0.2
2018-Jun-23 12:29N 44°39' E 037°54'0 0.2
2018-Jun-23 11:59N 44°39' E 037°54'0 0.2
2018-Jun-23 11:29N 44°39' E 037°54'0 0.1
2018-Jun-23 10:59N 44°39' E 037°54'0 0.2
2018-Jun-23 10:29N 44°39' E 037°54'0 0.0
2018-Jun-23 09:59N 44°39' E 037°54'0 0.0
2018-Jun-23 09:29N 44°39' E 037°54'0 0.1
2018-Jun-23 08:59N 44°39' E 037°54'0 0.1
2018-Jun-23 08:29N 44°39' E 037°54'0 0.0
2018-Jun-23 07:59N 44°39' E 037°54'0 0.1
2018-Jun-23 07:29N 44°39' E 037°54'0 0.2
2018-Jun-23 06:59N 44°39' E 037°54'0 0.0
2018-Jun-23 06:29N 44°39' E 037°54'0 0.1
2018-Jun-23 05:59N 44°39' E 037°54'0 0.1
2018-Jun-23 05:29N 44°39' E 037°54'0 0.0
2018-Jun-23 04:59N 44°39' E 037°54'0 0.0
2018-Jun-23 04:29N 44°39' E 037°54'0 0.0
2018-Jun-23 03:59N 44°39' E 037°54'0 0.0
2018-Jun-23 03:29N 44°39' E 037°54'0 0.0
2018-Jun-23 02:59N 44°39' E 037°54'0 0.0
2018-Jun-23 02:29N 44°39' E 037°54'0 0.0
2018-Jun-23 01:59N 44°39' E 037°54'0 0.0
2018-Jun-23 01:29N 44°39' E 037°54'0 0.0
2018-Jun-23 00:59N 44°39' E 037°54'0 0.0
2018-Jun-23 00:29N 44°39' E 037°54'0 0.0
2018-Jun-22 23:59N 44°39' E 037°54'0 0.1
2018-Jun-22 23:29N 44°39' E 037°54'0 0.0
2018-Jun-22 22:59N 44°39' E 037°54'0 0.0
2018-Jun-22 22:29N 44°39' E 037°54'0 0.0
2018-Jun-22 21:59N 44°39' E 037°54'0 0.0
2018-Jun-22 21:29N 44°39' E 037°54'0 0.0
2018-Jun-22 20:59N 44°39' E 037°54'0 0.1
2018-Jun-22 20:29N 44°39' E 037°54'0 0.7
2018-Jun-22 20:00N 44°38' E 037°54'4 8.9
2018-Jun-22 19:30N 44°35' E 037°50'510.3
2018-Jun-22 19:00N 44°31' E 037°46'510.9
2018-Jun-22 18:30N 44°28' E 037°40'611.3
2018-Jun-22 18:00N 44°25' E 037°32'811.8
2018-Jun-22 17:21N 44°22' E 037°23'511.9
2018-Jun-22 16:59N 44°19' E 037°17'2711.7
2018-Jun-22 14:42N 44°07' E 036°44'211.4
2018-Jun-22 14:30N 44°06' E 036°41'911.3
2018-Jun-22 13:41N 44°02' E 036°30'1411.1
2018-Jun-22 12:27N 43°56' E 036°13'7110.6
2018-Jun-22 05:45N 43°23' E 034°46'310.9
2018-Jun-22 05:29N 43°22' E 034°42'510.9
2018-Jun-22 05:00N 43°19' E 034°36'5111.1
2018-Jun-22 00:23N 42°56' E 033°33'411.5
2018-Jun-22 00:00N 42°54' E 033°28'611.3
2018-Jun-21 23:29N 42°51' E 033°21'511.2
2018-Jun-21 23:00N 42°49' E 033°14'911.2
2018-Jun-21 22:15N 42°45' E 033°04'311.4
2018-Jun-21 22:00N 42°43' E 033°01'1111.4
2018-Jun-21 21:01N 42°38' E 032°47'011.7
2018-Jun-21 21:01N 42°38' E 032°47'611.7
2018-Jun-21 20:30N 42°35' E 032°40'611.5
2018-Jun-21 20:00N 42°33' E 032°33'611.4
2018-Jun-21 19:31N 42°30' E 032°26'611.3
2018-Jun-21 19:00N 42°28' E 032°19'611.2
2018-Jun-21 18:30N 42°25' E 032°13'611.4
2018-Jun-21 18:00N 42°23' E 032°06'611.3
2018-Jun-21 17:30N 42°20' E 031°59'510.7
2018-Jun-21 17:00N 42°17' E 031°53'510.4
2018-Jun-21 16:30N 42°15' E 031°46'510.3
2018-Jun-21 16:00N 42°13' E 031°40'510.1
2018-Jun-21 15:30N 42°10' E 031°34'510.2
2018-Jun-21 15:00N 42°08' E 031°28'510.4
2018-Jun-21 14:30N 42°06' E 031°22'510.3
2018-Jun-21 14:00N 42°03' E 031°15'510.2
2018-Jun-21 13:30N 42°01' E 031°09'1210.1
2018-Jun-21 12:21N 41°56' E 030°55'310.2
2018-Jun-21 12:00N 41°54' E 030°51'510.2
2018-Jun-21 11:30N 41°52' E 030°45'510.3
2018-Jun-21 11:00N 41°49' E 030°39'510.4
2018-Jun-21 10:30N 41°47' E 030°33'510.4
2018-Jun-21 10:00N 41°44' E 030°27'510.3
2018-Jun-21 09:30N 41°42' E 030°21'510.4
2018-Jun-21 09:00N 41°39' E 030°15'510.6
2018-Jun-21 08:30N 41°37' E 030°08'510.7
2018-Jun-21 08:00N 41°35' E 030°02'510.7
2018-Jun-21 07:30N 41°32' E 029°56'  
Track history (hours):
 
Tides and Currents Weather Stations Pressure Air Temp Water Temp Dewpoint Dewpoint Depression Visibility Wind Speed Wind Dir Waves Ship Positions

Ece S

Last reported at 2018-Jun-29 14:56 UTC. Time now 2018-Jul-23 17:27 UTC.
Position N 44°23' E 037°14'.
Warning: this ship's position is 24 days out of date.

Length 101 m; draft 7 m.

Type: Ship. MMSI: 373882000.

Date/timePositionNaut miles runAvg speedWind from/ knotsBaromVisibWave heightAir tempDewpointWater temp
2018-Jun-29 14:56N 44°23' E 037°14'5 9.3
2018-Jun-29 14:26N 44°25' E 037°20'4 9.1
2018-Jun-29 13:59N 44°27' E 037°25'4 8.9
2018-Jun-29 13:30N 44°28' E 037°30'4 9.0
2018-Jun-29 13:00N 44°30' E 037°36'5 9.3
2018-Jun-29 12:30N 44°32' E 037°42'4 8.7
2018-Jun-29 12:00N 44°36' E 037°46'4 8.6
2018-Jun-29 11:30N 44°39' E 037°49'3 5.9
2018-Jun-29 11:00N 44°42' E 037°49'2 4.4
2018-Jun-29 10:30N 44°44' E 037°47'0 0.0
2018-Jun-29 10:00N 44°44' E 037°47'0 0.0
2018-Jun-29 09:30N 44°44' E 037°47'0 0.0
2018-Jun-29 08:59N 44°44' E 037°47'0 0.0
2018-Jun-29 08:29N 44°44' E 037°47'0 0.0
2018-Jun-29 07:59N 44°44' E 037°47'0 0.0
2018-Jun-29 07:29N 44°44' E 037°47'0 0.0
2018-Jun-29 06:59N 44°44' E 037°47'0 0.0
2018-Jun-29 06:29N 44°44' E 037°47'0 0.0
2018-Jun-29 05:59N 44°44' E 037°47'0 0.0
2018-Jun-29 05:29N 44°44' E 037°47'0 0.0
2018-Jun-29 04:59N 44°44' E 037°47'0 0.0
2018-Jun-29 04:29N 44°44' E 037°47'0 0.0
2018-Jun-29 03:59N 44°44' E 037°47'0 0.0
2018-Jun-29 03:29N 44°44' E 037°47'0 0.0
2018-Jun-29 02:59N 44°44' E 037°47'0 0.0
2018-Jun-29 02:29N 44°44' E 037°47'0 0.0
2018-Jun-29 01:59N 44°44' E 037°47'0 0.0
2018-Jun-29 01:29N 44°44' E 037°47'0 0.0
2018-Jun-29 00:59N 44°44' E 037°47'0 0.0
2018-Jun-29 00:29N 44°44' E 037°47'0 0.0
2018-Jun-28 23:59N 44°44' E 037°47'0 0.0
2018-Jun-28 23:29N 44°44' E 037°47'0 0.0
2018-Jun-28 22:59N 44°44' E 037°47'0 0.0
2018-Jun-28 22:29N 44°44' E 037°47'0 0.0
2018-Jun-28 21:59N 44°44' E 037°47'0 0.0
2018-Jun-28 21:29N 44°44' E 037°47'0 0.0
2018-Jun-28 20:59N 44°44' E 037°47'0 0.0
2018-Jun-28 20:29N 44°44' E 037°47'0 0.0
2018-Jun-28 19:59N 44°44' E 037°47'0 0.0
2018-Jun-28 19:29N 44°44' E 037°47'0 0.0
2018-Jun-28 18:59N 44°44' E 037°47'0 0.0
2018-Jun-28 18:29N 44°44' E 037°47'0 0.0
2018-Jun-28 17:59N 44°44' E 037°47'0 0.0
2018-Jun-28 17:29N 44°44' E 037°47'0 0.0
2018-Jun-28 16:56N 44°44' E 037°47'0 0.0
2018-Jun-28 16:29N 44°44' E 037°47'0 0.0
2018-Jun-28 15:59N 44°44' E 037°47'0 0.0
2018-Jun-28 15:29N 44°44' E 037°47'0 0.0
2018-Jun-28 14:59N 44°44' E 037°47'0 0.0
2018-Jun-28 14:29N 44°44' E 037°47'0 0.0
2018-Jun-28 13:59N 44°44' E 037°47'0 0.0
2018-Jun-28 13:29N 44°44' E 037°47'0 0.0
2018-Jun-28 12:59N 44°44' E 037°47'0 0.0
2018-Jun-28 12:29N 44°44' E 037°47'0 0.0
2018-Jun-28 11:59N 44°44' E 037°47'0 0.0
2018-Jun-28 11:29N 44°44' E 037°47'0 0.0
2018-Jun-28 10:59N 44°44' E 037°47'0 0.0
2018-Jun-28 10:29N 44°44' E 037°47'0 0.0
2018-Jun-28 09:59N 44°44' E 037°47'0 0.0
2018-Jun-28 09:29N 44°44' E 037°47'0 0.0
2018-Jun-28 08:56N 44°44' E 037°47'0 0.0
2018-Jun-28 08:29N 44°44' E 037°47'0 0.0
2018-Jun-28 07:59N 44°44' E 037°47'0 0.0
2018-Jun-28 07:29N 44°44' E 037°47'0 0.0
2018-Jun-28 06:59N 44°44' E 037°47'0 0.0
2018-Jun-28 06:29N 44°44' E 037°47'0 0.0
2018-Jun-28 05:59N 44°44' E 037°47'0 0.0
2018-Jun-28 05:29N 44°44' E 037°47'0 0.0
2018-Jun-28 04:59N 44°44' E 037°47'0 0.0
2018-Jun-28 04:29N 44°44' E 037°47'0 0.0
2018-Jun-28 03:59N 44°44' E 037°47'0 0.0
2018-Jun-28 03:29N 44°44' E 037°47'0 0.0
2018-Jun-28 02:59N 44°44' E 037°47'0 0.0
2018-Jun-28 02:29N 44°44' E 037°47'0 0.0
2018-Jun-28 01:59N 44°44' E 037°47'0 0.0
2018-Jun-28 01:29N 44°44' E 037°47'0 0.0
2018-Jun-28 00:59N 44°44' E 037°47'0 0.0
2018-Jun-28 00:29N 44°44' E 037°47'0 0.0
2018-Jun-27 23:59N 44°44' E 037°47'0 0.0
2018-Jun-27 23:29N 44°44' E 037°47'0 0.0
2018-Jun-27 22:56N 44°44' E 037°47'0 0.0
2018-Jun-27 22:29N 44°44' E 037°47'0 0.0
2018-Jun-27 21:59N 44°44' E 037°47'0 0.0
2018-Jun-27 21:29N 44°44' E 037°47'0 0.0
2018-Jun-27 20:59N 44°44' E 037°47'0 0.0
2018-Jun-27 20:29N 44°44' E 037°47'0 0.0
2018-Jun-27 19:59N 44°44' E 037°47'0 0.0
2018-Jun-27 19:29N 44°44' E 037°47'0 0.0
2018-Jun-27 18:59N 44°44' E 037°47'0 0.0
2018-Jun-27 18:26N 44°44' E 037°47'0 0.0
2018-Jun-27 17:59N 44°44' E 037°47'0 0.0
2018-Jun-27 17:30N 44°44' E 037°47'1 2.4
2018-Jun-27 17:00N 44°43' E 037°48'4 8.1
2018-Jun-27 16:31N 44°39' E 037°51'2 3.8
2018-Jun-27 16:01N 44°38' E 037°53'1 1.8
2018-Jun-27 15:30N 44°39' E 037°54'0 0.2
2018-Jun-27 15:00N 44°39' E 037°54'0 0.0
2018-Jun-27 14:29N 44°39' E 037°54'0 0.0
2018-Jun-27 13:59N 44°39' E 037°54'0 0.1
2018-Jun-27 13:29N 44°39' E 037°54'0 0.1
2018-Jun-27 12:59N 44°39' E 037°54'0 0.0
2018-Jun-27 12:29N 44°39' E 037°54'0 0.0
2018-Jun-27 11:59N 44°39' E 037°54'0 0.0
2018-Jun-27 11:29N 44°39' E 037°54'0 0.0
2018-Jun-27 10:59N 44°39' E 037°54'0 0.0
2018-Jun-27 10:17N 44°39' E 037°54'0 0.0
2018-Jun-27 09:59N 44°39' E 037°54'0 0.0
2018-Jun-27 09:29N 44°39' E 037°54'0 0.0
2018-Jun-27 08:59N 44°39' E 037°54'0 0.0
2018-Jun-27 08:29N 44°39' E 037°54'0 0.0
2018-Jun-27 07:59N 44°39' E 037°54'0 0.0
2018-Jun-27 07:29N 44°39' E 037°54'0 0.0
2018-Jun-27 06:59N 44°39' E 037°54'0 0.0
2018-Jun-27 06:29N 44°39' E 037°54'0 0.0
2018-Jun-27 05:59N 44°39' E 037°54'0 0.0
2018-Jun-27 05:29N 44°39' E 037°54'0 0.1
2018-Jun-27 04:59N 44°39' E 037°54'0 0.1
2018-Jun-27 04:29N 44°39' E 037°54'0 0.0
2018-Jun-27 03:59N 44°39' E 037°54'0 0.0
2018-Jun-27 03:29N 44°39' E 037°54'0 0.0
2018-Jun-27 02:59N 44°39' E 037°54'0 0.1
2018-Jun-27 02:29N 44°39' E 037°54'0 0.0
2018-Jun-27 01:59N 44°39' E 037°54'0 0.0
2018-Jun-27 01:29N 44°39' E 037°54'0 0.0
2018-Jun-27 00:59N 44°39' E 037°54'0 0.0
2018-Jun-27 00:29N 44°39' E 037°54'0 0.1
2018-Jun-26 23:59N 44°39' E 037°54'0 0.1
2018-Jun-26 23:29N 44°39' E 037°54'0 0.0
2018-Jun-26 22:59N 44°39' E 037°54'0 0.0
2018-Jun-26 22:29N 44°39' E 037°54'0 0.0
2018-Jun-26 21:56N 44°39' E 037°54'0 0.1
2018-Jun-26 21:29N 44°39' E 037°54'0 0.0
2018-Jun-26 20:59N 44°39' E 037°54'0 0.0
2018-Jun-26 20:29N 44°39' E 037°54'0 0.0
2018-Jun-26 19:59N 44°39' E 037°54'0 0.1
2018-Jun-26 19:29N 44°39' E 037°54'0 0.2
2018-Jun-26 18:59N 44°39' E 037°54'0 0.0
2018-Jun-26 18:29N 44°39' E 037°54'0 0.3
2018-Jun-26 17:59N 44°39' E 037°54'0 0.1
2018-Jun-26 17:29N 44°39' E 037°54'0 0.0
2018-Jun-26 16:26N 44°39' E 037°54'0 0.0
2018-Jun-26 15:59N 44°39' E 037°54'0 0.0
2018-Jun-26 15:29N 44°39' E 037°54'0 0.0
2018-Jun-26 14:59N 44°39' E 037°54'0 0.0
2018-Jun-26 14:29N 44°39' E 037°54'0 0.0
2018-Jun-26 13:53N 44°39' E 037°54'0 0.0
2018-Jun-26 13:29N 44°39' E 037°54'0 0.0
2018-Jun-26 12:59N 44°39' E 037°54'0 0.0
2018-Jun-26 12:29N 44°39' E 037°54'0 0.0
2018-Jun-26 11:59N 44°39' E 037°54'0 0.3
2018-Jun-26 11:29N 44°39' E 037°54'0 0.1
2018-Jun-26 10:59N 44°38' E 037°54'0 0.2
2018-Jun-26 10:29N 44°39' E 037°54'0 0.0
2018-Jun-26 09:59N 44°39' E 037°54'0 0.0
2018-Jun-26 09:29N 44°39' E 037°54'0 0.2
2018-Jun-26 08:59N 44°39' E 037°54'0 0.0
2018-Jun-26 08:29N 44°38' E 037°54'0 0.1
2018-Jun-26 07:59N 44°39' E 037°54'0 0.0
2018-Jun-26 07:29N 44°39' E 037°54'0 0.2
2018-Jun-26 06:59N 44°39' E 037°54'0 0.0
2018-Jun-26 05:59N 44°39' E 037°54'0 0.1
2018-Jun-26 05:29N 44°39' E 037°54'0 0.1
2018-Jun-26 04:59N 44°39' E 037°54'0 0.2
2018-Jun-26 04:29N 44°39' E 037°54'0 0.1
2018-Jun-26 03:59N 44°39' E 037°54'0 0.0
2018-Jun-26 03:29N 44°39' E 037°54'0 0.1
2018-Jun-26 02:59N 44°39' E 037°54'0 0.0
2018-Jun-26 02:29N 44°39' E 037°54'0 0.0
2018-Jun-26 01:59N 44°39' E 037°54'0 0.0
2018-Jun-26 01:29N 44°39' E 037°54'0 0.0
2018-Jun-26 00:59N 44°39' E 037°54'0 0.0
2018-Jun-26 00:29N 44°39' E 037°54'0 0.0
2018-Jun-25 23:59N 44°39' E 037°54'0 0.1
2018-Jun-25 23:29N 44°38' E 037°54'0 0.0
2018-Jun-25 22:59N 44°38' E 037°54'0 0.0
2018-Jun-25 22:29N 44°38' E 037°54'0 0.0
2018-Jun-25 21:59N 44°38' E 037°54'0 0.0
2018-Jun-25 21:29N 44°38' E 037°54'0 0.0
2018-Jun-25 20:59N 44°38' E 037°54'0 0.0
2018-Jun-25 20:29N 44°38' E 037°54'0 0.0
2018-Jun-25 19:59N 44°39' E 037°54'0 0.1
2018-Jun-25 19:29N 44°39' E 037°54'0 0.1
2018-Jun-25 18:59N 44°39' E 037°54'0 0.1
2018-Jun-25 18:29N 44°39' E 037°54'0 0.0
2018-Jun-25 17:59N 44°39' E 037°54'0 0.0
2018-Jun-25 17:29N 44°39' E 037°54'0 0.0
2018-Jun-25 16:59N 44°39' E 037°54'0 0.1
2018-Jun-25 16:29N 44°39' E 037°54'0 0.1
2018-Jun-25 15:59N 44°39' E 037°54'0 0.0
2018-Jun-25 15:29N 44°39' E 037°54'0 0.0
2018-Jun-25 14:59N 44°39' E 037°54'0 0.0
2018-Jun-25 14:29N 44°39' E 037°54'0 0.0
2018-Jun-25 13:59N 44°39' E 037°54'0 0.0
2018-Jun-25 13:29N 44°39' E 037°54'0 0.0
2018-Jun-25 12:59N 44°39' E 037°54'0 0.0
2018-Jun-25 12:29N 44°39' E 037°54'0 0.0
2018-Jun-25 11:59N 44°39' E 037°54'0 0.0
2018-Jun-25 11:23N 44°39' E 037°54'0 0.0
2018-Jun-25 10:59N 44°39' E 037°54'0 0.0
2018-Jun-25 10:29N 44°39' E 037°54'0 0.0
2018-Jun-25 09:59N 44°39' E 037°54'0 0.0
2018-Jun-25 09:29N 44°39' E 037°54'0 0.0
2018-Jun-25 08:59N 44°39' E 037°54'0 0.0
2018-Jun-25 08:29N 44°39' E 037°54'0 0.0
2018-Jun-25 07:59N 44°39' E 037°54'0 0.0
2018-Jun-25 07:29N 44°39' E 037°54'0 0.0
2018-Jun-25 06:59N 44°39' E 037°54'0 0.0
2018-Jun-25 06:29N 44°39' E 037°54'0 0.0
2018-Jun-25 05:59N 44°39' E 037°54'0 0.0
2018-Jun-25 05:29N 44°39' E 037°54'0 0.0
2018-Jun-25 04:59N 44°39' E 037°54'0 0.0
2018-Jun-25 04:29N 44°39' E 037°54'0 0.0
2018-Jun-25 03:59N 44°39' E 037°54'0 0.0
2018-Jun-25 03:29N 44°39' E 037°54'0 0.0
2018-Jun-25 02:59N 44°39' E 037°54'0 0.0
2018-Jun-25 02:29N 44°39' E 037°54'0 0.0
2018-Jun-25 01:59N 44°39' E 037°54'0 0.0
2018-Jun-25 01:29N 44°39' E 037°54'0 0.0
2018-Jun-25 00:59N 44°39' E 037°54'0 0.0
2018-Jun-25 00:29N 44°39' E 037°54'0 0.0
2018-Jun-24 23:59N 44°39' E 037°54'0 0.0
2018-Jun-24 23:29N 44°39' E 037°54'0 0.0
2018-Jun-24 22:59N 44°39' E 037°54'0 0.0
2018-Jun-24 22:29N 44°39' E 037°54'0 0.1
2018-Jun-24 21:59N 44°39' E 037°54'0 0.0
2018-Jun-24 21:29N 44°39' E 037°54'0 0.0
2018-Jun-24 20:59N 44°39' E 037°54'0 0.0
2018-Jun-24 20:29N 44°39' E 037°54'0 0.0
2018-Jun-24 19:59N 44°39' E 037°54'0 0.0
2018-Jun-24 19:29N 44°39' E 037°54'0 0.0
2018-Jun-24 18:59N 44°39' E 037°54'0 0.0
2018-Jun-24 18:29N 44°39' E 037°54'0 0.0
2018-Jun-24 17:59N 44°39' E 037°54'0 0.1
2018-Jun-24 17:29N 44°39' E 037°54'0 0.0
2018-Jun-24 16:59N 44°39' E 037°54'0 0.0
2018-Jun-24 16:29N 44°39' E 037°54'0 0.0
2018-Jun-24 15:59N 44°39' E 037°54'0 0.0
2018-Jun-24 15:29N 44°39' E 037°54'0 0.1
2018-Jun-24 14:56N 44°39' E 037°54'0 0.1
2018-Jun-24 14:29N 44°39' E 037°54'0 0.1
2018-Jun-24 13:59N 44°39' E 037°54'0 0.1
2018-Jun-24 13:29N 44°39' E 037°54'0 0.1
2018-Jun-24 12:59N 44°39' E 037°54'0 0.0
2018-Jun-24 12:29N 44°39' E 037°54'0 0.0
2018-Jun-24 11:59N 44°39' E 037°54'0 0.0
2018-Jun-24 11:29N 44°39' E 037°54'0 0.0
2018-Jun-24 10:59N 44°39' E 037°54'0 0.0
2018-Jun-24 10:29N 44°39' E 037°54'0 0.0
2018-Jun-24 09:59N 44°39' E 037°54'0 0.0
2018-Jun-24 09:29N 44°39' E 037°54'0 0.0
2018-Jun-24 08:59N 44°39' E 037°54'0 0.0
2018-Jun-24 08:29N 44°39' E 037°54'0 0.1
2018-Jun-24 07:59N 44°39' E 037°54'0 0.0
2018-Jun-24 07:29N 44°39' E 037°54'0 0.0
2018-Jun-24 06:59N 44°39' E 037°54'0 0.0
2018-Jun-24 06:26N 44°39' E 037°54'0 0.1
2018-Jun-24 05:59N 44°39' E 037°54'0 0.0
2018-Jun-24 05:29N 44°39' E 037°54'0 0.0
2018-Jun-24 04:59N 44°39' E 037°54'0 0.1
2018-Jun-24 04:29N 44°39' E 037°54'0 0.2
2018-Jun-24 03:59N 44°39' E 037°54'0 0.1
2018-Jun-24 03:29N 44°39' E 037°54'0 0.0
2018-Jun-24 02:59N 44°39' E 037°54'0 0.2
2018-Jun-24 02:29N 44°39' E 037°54'0 0.1
2018-Jun-24 01:59N 44°39' E 037°54'0 0.1
2018-Jun-24 01:29N 44°39' E 037°54'0 0.2
2018-Jun-24 00:59N 44°39' E 037°54'0 0.3
2018-Jun-24 00:29N 44°39' E 037°54'0 0.3
2018-Jun-23 23:59N 44°39' E 037°54'0 0.0
2018-Jun-23 23:29N 44°39' E 037°54'0 0.0
2018-Jun-23 22:59N 44°39' E 037°54'0 0.0
2018-Jun-23 22:29N 44°39' E 037°54'0 0.0
2018-Jun-23 21:59N 44°39' E 037°54'0 0.0
2018-Jun-23 21:29N 44°39' E 037°54'0 0.1
2018-Jun-23 20:59N 44°39' E 037°54'0 0.1
2018-Jun-23 20:29N 44°39' E 037°54'0 0.0
2018-Jun-23 19:59N 44°39' E 037°54'0 0.0
2018-Jun-23 19:23N 44°39' E 037°54'0 0.1
2018-Jun-23 18:59N 44°39' E 037°54'0 0.0
2018-Jun-23 18:29N 44°39' E 037°54'0 0.0
2018-Jun-23 17:59N 44°39' E 037°54'0 0.0
2018-Jun-23 17:23N 44°39' E 037°54'0 0.1
2018-Jun-23 16:59N 44°39' E 037°54'0 0.0
2018-Jun-23 16:29N 44°39' E 037°54'0 0.0
2018-Jun-23 15:59N 44°39' E 037°54'0 0.0
2018-Jun-23 15:29N 44°39' E 037°54'0 0.1
2018-Jun-23 14:59N 44°39' E 037°54'0 0.1
2018-Jun-23 14:29N 44°39' E 037°54'0 0.1
2018-Jun-23 13:59N 44°39' E 037°54'0 0.2
2018-Jun-23 13:29N 44°39' E 037°54'0 0.1
2018-Jun-23 12:59N 44°39' E 037°54'0 0.2
2018-Jun-23 12:29N 44°39' E 037°54'0 0.2
2018-Jun-23 11:59N 44°39' E 037°54'0 0.2
2018-Jun-23 11:29N 44°39' E 037°54'0 0.1
2018-Jun-23 10:59N 44°39' E 037°54'0 0.2
2018-Jun-23 10:29N 44°39' E 037°54'0 0.0
2018-Jun-23 09:59N 44°39' E 037°54'0 0.0
2018-Jun-23 09:29N 44°39' E 037°54'0 0.1
2018-Jun-23 08:59N 44°39' E 037°54'0 0.1
2018-Jun-23 08:29N 44°39' E 037°54'0 0.0
2018-Jun-23 07:59N 44°39' E 037°54'0 0.1
2018-Jun-23 07:29N 44°39' E 037°54'0 0.2
2018-Jun-23 06:59N 44°39' E 037°54'0 0.0
2018-Jun-23 06:29N 44°39' E 037°54'0 0.1
2018-Jun-23 05:59N 44°39' E 037°54'0 0.1
2018-Jun-23 05:29N 44°39' E 037°54'0 0.0
2018-Jun-23 04:59N 44°39' E 037°54'0 0.0
2018-Jun-23 04:29N 44°39' E 037°54'0 0.0
2018-Jun-23 03:59N 44°39' E 037°54'0 0.0
2018-Jun-23 03:29N 44°39' E 037°54'0 0.0
2018-Jun-23 02:59N 44°39' E 037°54'0 0.0
2018-Jun-23 02:29N 44°39' E 037°54'0 0.0
2018-Jun-23 01:59N 44°39' E 037°54'0 0.0
2018-Jun-23 01:29N 44°39' E 037°54'0 0.0
2018-Jun-23 00:59N 44°39' E 037°54'0 0.0
2018-Jun-23 00:29N 44°39' E 037°54'0 0.0
2018-Jun-22 23:59N 44°39' E 037°54'0 0.1
2018-Jun-22 23:29N 44°39' E 037°54'0 0.0
2018-Jun-22 22:59N 44°39' E 037°54'0 0.0
2018-Jun-22 22:29N 44°39' E 037°54'0 0.0
2018-Jun-22 21:59N 44°39' E 037°54'0 0.0
2018-Jun-22 21:29N 44°39' E 037°54'0 0.0
2018-Jun-22 20:59N 44°39' E 037°54'0 0.1
2018-Jun-22 20:29N 44°39' E 037°54'0 0.7
2018-Jun-22 20:00N 44°38' E 037°54'4 8.9
2018-Jun-22 19:30N 44°35' E 037°50'510.3
2018-Jun-22 19:00N 44°31' E 037°46'510.9
2018-Jun-22 18:30N 44°28' E 037°40'611.3
2018-Jun-22 18:00N 44°25' E 037°32'811.8
2018-Jun-22 17:21N 44°22' E 037°23'511.9
2018-Jun-22 16:59N 44°19' E 037°17'2711.7
2018-Jun-22 14:42N 44°07' E 036°44'211.4
2018-Jun-22 14:30N 44°06' E 036°41'911.3
2018-Jun-22 13:41N 44°02' E 036°30'1411.1
2018-Jun-22 12:27N 43°56' E 036°13'7110.6
2018-Jun-22 05:45N 43°23' E 034°46'310.9
2018-Jun-22 05:29N 43°22' E 034°42'510.9
2018-Jun-22 05:00N 43°19' E 034°36'5111.1
2018-Jun-22 00:23N 42°56' E 033°33'411.5
2018-Jun-22 00:00N 42°54' E 033°28'611.3
2018-Jun-21 23:29N 42°51' E 033°21'511.2
2018-Jun-21 23:00N 42°49' E 033°14'911.2
2018-Jun-21 22:15N 42°45' E 033°04'311.4
2018-Jun-21 22:00N 42°43' E 033°01'1111.4
2018-Jun-21 21:01N 42°38' E 032°47'011.7
2018-Jun-21 21:01N 42°38' E 032°47'611.7
2018-Jun-21 20:30N 42°35' E 032°40'611.5
2018-Jun-21 20:00N 42°33' E 032°33'611.4
2018-Jun-21 19:31N 42°30' E 032°26'611.3
2018-Jun-21 19:00N 42°28' E 032°19'611.2
2018-Jun-21 18:30N 42°25' E 032°13'611.4
2018-Jun-21 18:00N 42°23' E 032°06'611.3
2018-Jun-21 17:30N 42°20' E 031°59'510.7
2018-Jun-21 17:00N 42°17' E 031°53'510.4
2018-Jun-21 16:30N 42°15' E 031°46'510.3
2018-Jun-21 16:00N 42°13' E 031°40'510.1
2018-Jun-21 15:30N 42°10' E 031°34'510.2
2018-Jun-21 15:00N 42°08' E 031°28'510.4
2018-Jun-21 14:30N 42°06' E 031°22'510.3
2018-Jun-21 14:00N 42°03' E 031°15'510.2
2018-Jun-21 13:30N 42°01' E 031°09'1210.1
2018-Jun-21 12:21N 41°56' E 030°55'310.2
2018-Jun-21 12:00N 41°54' E 030°51'510.2
2018-Jun-21 11:30N 41°52' E 030°45'510.3
2018-Jun-21 11:00N 41°49' E 030°39'510.4
2018-Jun-21 10:30N 41°47' E 030°33'510.4
2018-Jun-21 10:00N 41°44' E 030°27'510.3
2018-Jun-21 09:30N 41°42' E 030°21'510.4
2018-Jun-21 09:00N 41°39' E 030°15'510.6
2018-Jun-21 08:30N 41°37' E 030°08'510.7
2018-Jun-21 08:00N 41°35' E 030°02'510.7
2018-Jun-21 07:30N 41°32' E 029°56'  

Dump ship's entire track history